ADDS METAR Data INFO
IDs: Format: Raw Decoded Include TAF

Data at: 1931 UTC 19 Jul 2018

KLCI 191856Z AUTO 00000KT 10SM CLR 26/08 A3008 RMK AO2 SLP198 T02560078
KLCI 191756Z AUTO 00000KT 10SM CLR 24/08 A3008 RMK AO2 SLP201 T02440078 10244 20156 58008
KLCI 191656Z AUTO 24007KT 10SM CLR 24/07 A3009 RMK AO2 SLP204 T02390072
KLCI 191556Z AUTO 24007KT 10SM CLR 23/08 A3010 RMK AO2 SLP207 T02330078
KLCI 191456Z AUTO 29004KT 10SM CLR 23/08 A3011 RMK AO2 SLP208 T02280078 50001
KLCI 191356Z AUTO 21004KT 10SM CLR 21/10 A3011 RMK AO2 SLP208 T02060100
KLCI 191256Z AUTO VRB04KT 10SM CLR 18/10 A3010 RMK AO2 SLP208 T01780100
KLCI 191156Z AUTO 22005KT 10SM CLR 16/10 A3010 RMK AO2 SLP206 T01560100 10156 20094 51011
KLCI 191056Z AUTO 21003KT 10SM CLR 13/11 A3010 RMK AO2 SLP205 T01330106
KLCI 190956Z AUTO 00000KT 10SM CLR 11/08 A3008 RMK AO2 SLP201 T01060083
KLCI 190856Z AUTO 00000KT 10SM CLR 10/08 A3007 RMK AO2 SLP196 T01000083 53009
KLCI 190756Z AUTO 00000KT 10SM CLR 11/09 A3005 RMK AO2 SLP190 T01060089
KLCI 190656Z AUTO 00000KT 10SM CLR 11/09 A3005 RMK AO2 SLP189 T01110089
KLCI 190556Z AUTO 00000KT 10SM CLR 11/09 A3004 RMK AO2 SLP187 T01110094 10217 20111 53012
KLCI 190456Z AUTO 00000KT 10SM CLR 12/10 A3002 RMK AO2 SLP182 T01170100
KLCI 190356Z AUTO 00000KT 10SM CLR 13/09 A3001 RMK AO2 SLP177 T01280094 402500128
KLCI 190256Z AUTO 00000KT 10SM CLR 14/11 A3000 RMK AO2 SLP173 T01440111 51019
KLCI 190156Z AUTO 00000KT 10SM CLR 17/10 A2999 RMK AO2 SLP168 T01720100
KLCI 182356Z AUTO 31005KT 10SM CLR 22/08 A2994 RMK AO2 SLP152 T02170083 10250 20217 53015
KLCI 182156Z AUTO 31010G16KT 10SM CLR 24/07 A2991 RMK AO2 SLP139 T02440072
KLCI 182056Z AUTO 32009KT 10SM CLR 25/07 A2990 RMK AO2 SLP136 T02500072 51003
KLCI 181956Z AUTO 31011G16KT 10SM CLR 24/07 A2990 RMK AO2 SLP136 T02440067
KLCI 181856Z AUTO 33013G17KT 10SM CLR 24/07 A2990 RMK AO2 SLP136 T02390067
KLCI 181756Z AUTO 32009KT 300V360 10SM CLR 23/08 A2989 RMK AO2 SLP132 T02330083 10239 20183 58005
KLCI 181656Z AUTO 30009G14KT 250V330 10SM CLR 23/09 A2990 RMK AO2 SLP135 T02280089
KLCI 181556Z AUTO 28009KT 240V310 10SM CLR 22/09 A2990 RMK AO2 SLP136 T02170094
KLCI 181456Z AUTO VRB06KT 10SM CLR 22/12 A2991 RMK AO2 SLP139 T02170122 50000
KLCI 181356Z AUTO 26010KT 10SM CLR 20/13 A2991 RMK AO2 SLP140 T02000128
KLCI 181256Z AUTO 30007KT 10SM CLR 19/12 A2991 RMK AO2 SLP141 T01890117
KLCI 181156Z AUTO 28007KT 10SM CLR 18/14 A2991 RMK AO2 SLP139 60001 70078 T01830139 10206 20172 51023
KLCI 181056Z AUTO 28006KT 10SM CLR 18/14 A2990 RMK AO2 SLP136 T01780144
KLCI 180956Z AUTO 28005KT 10SM CLR 17/14 A2987 RMK AO2 SLP128 T01720144
KLCI 180756Z AUTO 31007KT 10SM CLR 19/17 A2981 RMK AO2 SLP106 T01890167